sensor_id;sensor_type;location;lat;lon;timestamp;P1;durP1;ratioP1;P2;durP2;ratioP2
9720;SDS011;4899;42.644;23.366;2023-04-15T00:01:46;2.63;;;2.20;;
9720;SDS011;4899;42.644;23.366;2023-04-15T00:04:12;4.47;;;2.90;;
9720;SDS011;4899;42.644;23.366;2023-04-15T00:06:37;2.47;;;2.23;;
9720;SDS011;4899;42.644;23.366;2023-04-15T00:09:05;6.17;;;2.60;;
9720;SDS011;4899;42.644;23.366;2023-04-15T00:11:31;4.63;;;2.60;;
9720;SDS011;4899;42.644;23.366;2023-04-15T00:13:56;3.70;;;2.40;;
9720;SDS011;4899;42.644;23.366;2023-04-15T00:16:22;3.67;;;2.57;;
9720;SDS011;4899;42.644;23.366;2023-04-15T00:18:48;4.10;;;3.40;;
9720;SDS011;4899;42.644;23.366;2023-04-15T00:21:13;5.97;;;3.63;;
9720;SDS011;4899;42.644;23.366;2023-04-15T00:23:39;5.93;;;3.10;;
9720;SDS011;4899;42.644;23.366;2023-04-15T00:26:04;7.17;;;3.53;;
9720;SDS011;4899;42.644;23.366;2023-04-15T00:28:30;8.60;;;3.57;;
9720;SDS011;4899;42.644;23.366;2023-04-15T00:30:56;5.43;;;3.17;;
9720;SDS011;4899;42.644;23.366;2023-04-15T00:33:21;5.13;;;3.67;;
9720;SDS011;4899;42.644;23.366;2023-04-15T00:35:47;8.27;;;3.70;;
9720;SDS011;4899;42.644;23.366;2023-04-15T00:38:12;6.37;;;3.93;;
9720;SDS011;4899;42.644;23.366;2023-04-15T00:40:37;5.70;;;4.00;;
9720;SDS011;4899;42.644;23.366;2023-04-15T00:43:06;6.30;;;4.20;;
9720;SDS011;4899;42.644;23.366;2023-04-15T00:45:32;5.67;;;4.53;;
9720;SDS011;4899;42.644;23.366;2023-04-15T00:47:58;6.73;;;4.60;;
9720;SDS011;4899;42.644;23.366;2023-04-15T00:50:23;4.93;;;4.23;;
9720;SDS011;4899;42.644;23.366;2023-04-15T00:52:49;5.07;;;4.43;;
9720;SDS011;4899;42.644;23.366;2023-04-15T00:55:14;7.80;;;4.57;;
9720;SDS011;4899;42.644;23.366;2023-04-15T00:57:40;6.37;;;4.30;;
9720;SDS011;4899;42.644;23.366;2023-04-15T01:00:06;6.17;;;4.00;;
9720;SDS011;4899;42.644;23.366;2023-04-15T01:02:33;5.37;;;4.60;;
9720;SDS011;4899;42.644;23.366;2023-04-15T01:05:00;6.10;;;4.70;;
9720;SDS011;4899;42.644;23.366;2023-04-15T01:07:26;5.43;;;4.60;;
9720;SDS011;4899;42.644;23.366;2023-04-15T01:09:51;6.53;;;4.47;;
9720;SDS011;4899;42.644;23.366;2023-04-15T01:12:17;7.37;;;4.40;;
9720;SDS011;4899;42.644;23.366;2023-04-15T01:14:44;8.17;;;4.67;;
9720;SDS011;4899;42.644;23.366;2023-04-15T01:17:10;5.93;;;4.73;;
9720;SDS011;4899;42.644;23.366;2023-04-15T01:19:37;4.63;;;4.07;;
9720;SDS011;4899;42.644;23.366;2023-04-15T01:22:03;6.17;;;4.37;;
9720;SDS011;4899;42.644;23.366;2023-04-15T01:24:29;7.07;;;4.10;;
9720;SDS011;4899;42.644;23.366;2023-04-15T01:26:57;3.97;;;3.33;;
9720;SDS011;4899;42.644;23.366;2023-04-15T01:29:23;6.10;;;3.90;;
9720;SDS011;4899;42.644;23.366;2023-04-15T01:31:52;4.57;;;3.27;;
9720;SDS011;4899;42.644;23.366;2023-04-15T01:34:19;3.43;;;2.90;;
9720;SDS011;4899;42.644;23.366;2023-04-15T01:36:45;3.83;;;2.87;;
9720;SDS011;4899;42.644;23.366;2023-04-15T01:39:11;4.50;;;2.83;;
9720;SDS011;4899;42.644;23.366;2023-04-15T01:41:36;4.23;;;2.93;;
9720;SDS011;4899;42.644;23.366;2023-04-15T01:44:02;3.50;;;2.80;;
9720;SDS011;4899;42.644;23.366;2023-04-15T01:46:27;3.30;;;3.00;;
9720;SDS011;4899;42.644;23.366;2023-04-15T01:48:53;3.63;;;2.70;;
9720;SDS011;4899;42.644;23.366;2023-04-15T01:51:18;3.77;;;3.00;;
9720;SDS011;4899;42.644;23.366;2023-04-15T01:53:44;4.93;;;3.13;;
9720;SDS011;4899;42.644;23.366;2023-04-15T01:56:09;3.80;;;2.80;;
9720;SDS011;4899;42.644;23.366;2023-04-15T01:58:36;3.77;;;2.80;;
9720;SDS011;4899;42.644;23.366;2023-04-15T02:01:01;5.10;;;3.03;;
9720;SDS011;4899;42.644;23.366;2023-04-15T02:03:28;3.23;;;2.83;;
9720;SDS011;4899;42.644;23.366;2023-04-15T02:05:53;3.50;;;2.87;;
9720;SDS011;4899;42.644;23.366;2023-04-15T02:08:19;4.37;;;3.30;;
9720;SDS011;4899;42.644;23.366;2023-04-15T02:10:44;4.43;;;3.23;;
9720;SDS011;4899;42.644;23.366;2023-04-15T02:13:10;3.83;;;2.67;;
9720;SDS011;4899;42.644;23.366;2023-04-15T02:15:36;3.63;;;2.57;;
9720;SDS011;4899;42.644;23.366;2023-04-15T02:18:01;5.70;;;3.17;;
9720;SDS011;4899;42.644;23.366;2023-04-15T02:20:27;4.07;;;3.63;;
9720;SDS011;4899;42.644;23.366;2023-04-15T02:22:54;4.57;;;3.10;;
9720;SDS011;4899;42.644;23.366;2023-04-15T02:25:20;5.87;;;3.57;;
9720;SDS011;4899;42.644;23.366;2023-04-15T02:27:46;4.10;;;3.20;;
9720;SDS011;4899;42.644;23.366;2023-04-15T02:30:11;3.87;;;3.07;;
9720;SDS011;4899;42.644;23.366;2023-04-15T02:32:37;4.60;;;3.60;;
9720;SDS011;4899;42.644;23.366;2023-04-15T02:35:05;5.37;;;3.60;;
9720;SDS011;4899;42.644;23.366;2023-04-15T02:37:33;5.03;;;3.27;;
9720;SDS011;4899;42.644;23.366;2023-04-15T02:40:05;3.37;;;3.03;;
9720;SDS011;4899;42.644;23.366;2023-04-15T02:42:33;4.73;;;3.13;;
9720;SDS011;4899;42.644;23.366;2023-04-15T02:44:58;7.40;;;2.97;;
9720;SDS011;4899;42.644;23.366;2023-04-15T02:47:24;4.10;;;3.67;;
9720;SDS011;4899;42.644;23.366;2023-04-15T02:49:49;2.70;;;2.40;;
9720;SDS011;4899;42.644;23.366;2023-04-15T02:52:15;4.80;;;4.30;;
9720;SDS011;4899;42.644;23.366;2023-04-15T02:54:40;6.47;;;4.67;;
9720;SDS011;4899;42.644;23.366;2023-04-15T02:57:06;5.23;;;4.53;;
9720;SDS011;4899;42.644;23.366;2023-04-15T02:59:31;6.00;;;4.80;;
9720;SDS011;4899;42.644;23.366;2023-04-15T03:01:57;3.70;;;3.40;;
9720;SDS011;4899;42.644;23.366;2023-04-15T03:04:25;4.33;;;3.93;;
9720;SDS011;4899;42.644;23.366;2023-04-15T03:06:54;12.10;;;5.00;;
9720;SDS011;4899;42.644;23.366;2023-04-15T03:09:20;5.33;;;3.77;;
9720;SDS011;4899;42.644;23.366;2023-04-15T03:11:45;4.93;;;3.63;;
9720;SDS011;4899;42.644;23.366;2023-04-15T03:14:17;4.20;;;3.63;;
9720;SDS011;4899;42.644;23.366;2023-04-15T03:16:43;4.47;;;3.40;;
9720;SDS011;4899;42.644;23.366;2023-04-15T03:19:08;3.83;;;3.00;;
9720;SDS011;4899;42.644;23.366;2023-04-15T03:21:34;5.77;;;3.60;;
9720;SDS011;4899;42.644;23.366;2023-04-15T03:23:59;4.60;;;3.80;;
9720;SDS011;4899;42.644;23.366;2023-04-15T03:26:25;3.70;;;3.30;;
9720;SDS011;4899;42.644;23.366;2023-04-15T03:28:55;4.47;;;4.00;;
9720;SDS011;4899;42.644;23.366;2023-04-15T03:31:20;4.93;;;3.60;;
9720;SDS011;4899;42.644;23.366;2023-04-15T03:33:46;3.80;;;3.23;;
9720;SDS011;4899;42.644;23.366;2023-04-15T03:36:11;7.73;;;4.10;;
9720;SDS011;4899;42.644;23.366;2023-04-15T03:38:37;3.87;;;3.40;;
9720;SDS011;4899;42.644;23.366;2023-04-15T03:41:02;4.07;;;3.53;;
9720;SDS011;4899;42.644;23.366;2023-04-15T03:43:28;3.70;;;3.40;;
9720;SDS011;4899;42.644;23.366;2023-04-15T03:45:54;3.97;;;3.67;;
9720;SDS011;4899;42.644;23.366;2023-04-15T03:48:20;4.27;;;3.43;;
9720;SDS011;4899;42.644;23.366;2023-04-15T03:50:45;4.13;;;3.33;;
9720;SDS011;4899;42.644;23.366;2023-04-15T03:53:11;5.17;;;3.93;;
9720;SDS011;4899;42.644;23.366;2023-04-15T03:55:36;5.60;;;4.27;;
9720;SDS011;4899;42.644;23.366;2023-04-15T03:58:02;4.20;;;3.80;;
9720;SDS011;4899;42.644;23.366;2023-04-15T04:00:27;4.30;;;3.73;;
9720;SDS011;4899;42.644;23.366;2023-04-15T04:02:53;4.37;;;3.97;;
9720;SDS011;4899;42.644;23.366;2023-04-15T04:05:18;5.97;;;3.87;;
9720;SDS011;4899;42.644;23.366;2023-04-15T04:07:43;3.70;;;3.40;;
9720;SDS011;4899;42.644;23.366;2023-04-15T04:10:09;4.07;;;3.37;;
9720;SDS011;4899;42.644;23.366;2023-04-15T04:12:35;5.70;;;4.17;;
9720;SDS011;4899;42.644;23.366;2023-04-15T04:15:00;4.90;;;4.13;;
9720;SDS011;4899;42.644;23.366;2023-04-15T04:17:26;5.13;;;4.03;;
9720;SDS011;4899;42.644;23.366;2023-04-15T04:19:51;5.83;;;4.70;;
9720;SDS011;4899;42.644;23.366;2023-04-15T04:22:17;5.77;;;4.97;;
9720;SDS011;4899;42.644;23.366;2023-04-15T04:24:46;10.13;;;7.30;;
9720;SDS011;4899;42.644;23.366;2023-04-15T04:27:11;7.17;;;5.53;;
9720;SDS011;4899;42.644;23.366;2023-04-15T04:29:36;6.50;;;4.77;;
9720;SDS011;4899;42.644;23.366;2023-04-15T04:32:02;8.63;;;6.63;;
9720;SDS011;4899;42.644;23.366;2023-04-15T04:34:27;10.43;;;8.10;;
9720;SDS011;4899;42.644;23.366;2023-04-15T04:36:53;11.23;;;8.37;;
9720;SDS011;4899;42.644;23.366;2023-04-15T04:39:18;8.63;;;7.73;;
9720;SDS011;4899;42.644;23.366;2023-04-15T04:41:44;8.67;;;7.83;;
9720;SDS011;4899;42.644;23.366;2023-04-15T04:44:09;10.83;;;8.17;;
9720;SDS011;4899;42.644;23.366;2023-04-15T04:46:34;13.37;;;8.20;;
9720;SDS011;4899;42.644;23.366;2023-04-15T04:49:00;10.43;;;8.10;;
9720;SDS011;4899;42.644;23.366;2023-04-15T04:51:25;10.77;;;7.93;;
9720;SDS011;4899;42.644;23.366;2023-04-15T04:53:53;10.40;;;7.70;;
9720;SDS011;4899;42.644;23.366;2023-04-15T04:56:18;9.63;;;7.80;;
9720;SDS011;4899;42.644;23.366;2023-04-15T04:58:43;12.87;;;8.23;;
9720;SDS011;4899;42.644;23.366;2023-04-15T05:01:09;9.40;;;7.07;;
9720;SDS011;4899;42.644;23.366;2023-04-15T05:03:35;10.10;;;7.90;;
9720;SDS011;4899;42.644;23.366;2023-04-15T05:06:00;11.37;;;7.60;;
9720;SDS011;4899;42.644;23.366;2023-04-15T05:08:30;8.93;;;6.93;;
9720;SDS011;4899;42.644;23.366;2023-04-15T05:10:55;9.50;;;7.47;;
9720;SDS011;4899;42.644;23.366;2023-04-15T05:13:20;11.07;;;7.87;;
9720;SDS011;4899;42.644;23.366;2023-04-15T05:15:46;11.93;;;8.30;;
9720;SDS011;4899;42.644;23.366;2023-04-15T05:18:11;12.93;;;7.87;;
9720;SDS011;4899;42.644;23.366;2023-04-15T05:20:37;13.67;;;8.60;;
9720;SDS011;4899;42.644;23.366;2023-04-15T05:23:03;8.90;;;7.53;;
9720;SDS011;4899;42.644;23.366;2023-04-15T05:25:28;10.93;;;8.30;;
9720;SDS011;4899;42.644;23.366;2023-04-15T05:27:54;10.57;;;8.17;;
9720;SDS011;4899;42.644;23.366;2023-04-15T05:30:19;9.00;;;6.17;;
9720;SDS011;4899;42.644;23.366;2023-04-15T05:32:46;6.97;;;6.27;;
9720;SDS011;4899;42.644;23.366;2023-04-15T05:35:11;9.33;;;6.83;;
9720;SDS011;4899;42.644;23.366;2023-04-15T05:37:37;8.60;;;5.50;;
9720;SDS011;4899;42.644;23.366;2023-04-15T05:40:03;5.43;;;4.30;;
9720;SDS011;4899;42.644;23.366;2023-04-15T05:42:29;5.57;;;3.93;;
9720;SDS011;4899;42.644;23.366;2023-04-15T05:44:54;4.67;;;4.27;;
9720;SDS011;4899;42.644;23.366;2023-04-15T05:47:20;4.53;;;4.07;;
9720;SDS011;4899;42.644;23.366;2023-04-15T05:49:45;5.67;;;4.13;;
9720;SDS011;4899;42.644;23.366;2023-04-15T05:52:11;5.80;;;4.30;;
9720;SDS011;4899;42.644;23.366;2023-04-15T05:54:37;5.40;;;4.40;;
9720;SDS011;4899;42.644;23.366;2023-04-15T05:57:03;5.43;;;4.93;;
9720;SDS011;4899;42.644;23.366;2023-04-15T05:59:28;8.83;;;5.90;;
9720;SDS011;4899;42.644;23.366;2023-04-15T06:01:54;7.23;;;5.53;;
9720;SDS011;4899;42.644;23.366;2023-04-15T06:04:19;5.93;;;5.33;;
9720;SDS011;4899;42.644;23.366;2023-04-15T06:06:45;5.70;;;5.17;;
9720;SDS011;4899;42.644;23.366;2023-04-15T06:09:11;4.97;;;4.47;;
9720;SDS011;4899;42.644;23.366;2023-04-15T06:11:36;5.53;;;4.10;;
9720;SDS011;4899;42.644;23.366;2023-04-15T06:14:02;5.70;;;3.67;;
9720;SDS011;4899;42.644;23.366;2023-04-15T06:16:27;4.47;;;4.03;;
9720;SDS011;4899;42.644;23.366;2023-04-15T06:18:53;5.50;;;3.53;;
9720;SDS011;4899;42.644;23.366;2023-04-15T06:21:18;4.83;;;3.63;;
9720;SDS011;4899;42.644;23.366;2023-04-15T06:23:43;5.53;;;3.90;;
9720;SDS011;4899;42.644;23.366;2023-04-15T06:26:09;5.10;;;4.00;;
9720;SDS011;4899;42.644;23.366;2023-04-15T06:28:35;5.27;;;4.07;;
9720;SDS011;4899;42.644;23.366;2023-04-15T06:31:00;6.90;;;3.63;;
9720;SDS011;4899;42.644;23.366;2023-04-15T06:33:26;3.83;;;3.37;;
9720;SDS011;4899;42.644;23.366;2023-04-15T06:35:52;6.17;;;3.73;;
9720;SDS011;4899;42.644;23.366;2023-04-15T06:38:17;4.07;;;3.50;;
9720;SDS011;4899;42.644;23.366;2023-04-15T06:40:42;6.93;;;4.07;;
9720;SDS011;4899;42.644;23.366;2023-04-15T06:43:08;4.60;;;3.50;;
9720;SDS011;4899;42.644;23.366;2023-04-15T06:45:34;5.93;;;3.47;;
9720;SDS011;4899;42.644;23.366;2023-04-15T06:47:59;5.60;;;3.47;;
9720;SDS011;4899;42.644;23.366;2023-04-15T06:50:25;4.00;;;3.60;;
9720;SDS011;4899;42.644;23.366;2023-04-15T06:55:20;7.03;;;3.93;;
9720;SDS011;4899;42.644;23.366;2023-04-15T06:57:46;6.27;;;3.87;;
9720;SDS011;4899;42.644;23.366;2023-04-15T07:00:11;3.87;;;3.33;;
9720;SDS011;4899;42.644;23.366;2023-04-15T07:02:38;9.00;;;4.10;;
9720;SDS011;4899;42.644;23.366;2023-04-15T07:05:04;5.00;;;3.60;;
9720;SDS011;4899;42.644;23.366;2023-04-15T07:07:31;6.57;;;4.00;;
9720;SDS011;4899;42.644;23.366;2023-04-15T07:09:56;4.37;;;3.70;;
9720;SDS011;4899;42.644;23.366;2023-04-15T07:12:22;4.00;;;3.40;;
9720;SDS011;4899;42.644;23.366;2023-04-15T07:14:47;4.43;;;3.60;;
9720;SDS011;4899;42.644;23.366;2023-04-15T07:17:13;4.73;;;3.70;;
9720;SDS011;4899;42.644;23.366;2023-04-15T07:19:39;5.23;;;3.90;;
9720;SDS011;4899;42.644;23.366;2023-04-15T07:22:04;5.17;;;3.50;;
9720;SDS011;4899;42.644;23.366;2023-04-15T07:24:29;8.93;;;3.87;;
9720;SDS011;4899;42.644;23.366;2023-04-15T07:26:56;7.83;;;4.07;;
9720;SDS011;4899;42.644;23.366;2023-04-15T07:29:22;5.40;;;3.57;;
9720;SDS011;4899;42.644;23.366;2023-04-15T07:31:48;4.33;;;3.10;;
9720;SDS011;4899;42.644;23.366;2023-04-15T07:34:13;6.10;;;3.30;;
9720;SDS011;4899;42.644;23.366;2023-04-15T07:36:39;6.10;;;3.23;;
9720;SDS011;4899;42.644;23.366;2023-04-15T07:39:04;7.60;;;3.53;;
9720;SDS011;4899;42.644;23.366;2023-04-15T07:41:30;4.23;;;3.03;;
9720;SDS011;4899;42.644;23.366;2023-04-15T07:43:56;5.53;;;3.50;;
9720;SDS011;4899;42.644;23.366;2023-04-15T07:46:21;3.70;;;3.10;;
9720;SDS011;4899;42.644;23.366;2023-04-15T07:48:49;3.23;;;2.93;;
9720;SDS011;4899;42.644;23.366;2023-04-15T07:51:15;5.80;;;3.13;;
9720;SDS011;4899;42.644;23.366;2023-04-15T07:53:41;3.47;;;2.80;;
9720;SDS011;4899;42.644;23.366;2023-04-15T07:56:08;4.37;;;2.97;;
9720;SDS011;4899;42.644;23.366;2023-04-15T07:58:33;3.43;;;2.83;;
9720;SDS011;4899;42.644;23.366;2023-04-15T08:00:59;4.03;;;2.63;;
9720;SDS011;4899;42.644;23.366;2023-04-15T08:03:27;3.23;;;2.90;;
9720;SDS011;4899;42.644;23.366;2023-04-15T08:05:52;3.43;;;3.10;;
9720;SDS011;4899;42.644;23.366;2023-04-15T08:08:18;5.90;;;2.93;;
9720;SDS011;4899;42.644;23.366;2023-04-15T08:10:43;4.97;;;4.00;;
9720;SDS011;4899;42.644;23.366;2023-04-15T08:13:09;5.77;;;3.10;;
9720;SDS011;4899;42.644;23.366;2023-04-15T08:15:34;4.13;;;2.63;;
9720;SDS011;4899;42.644;23.366;2023-04-15T08:18:00;3.27;;;2.50;;
9720;SDS011;4899;42.644;23.366;2023-04-15T08:20:25;3.17;;;2.60;;
9720;SDS011;4899;42.644;23.366;2023-04-15T08:22:51;5.27;;;2.90;;
9720;SDS011;4899;42.644;23.366;2023-04-15T08:25:17;5.50;;;3.27;;
9720;SDS011;4899;42.644;23.366;2023-04-15T08:27:44;6.13;;;3.17;;
9720;SDS011;4899;42.644;23.366;2023-04-15T08:30:10;2.80;;;2.30;;
9720;SDS011;4899;42.644;23.366;2023-04-15T08:32:36;3.03;;;2.57;;
9720;SDS011;4899;42.644;23.366;2023-04-15T08:35:01;2.03;;;1.80;;
9720;SDS011;4899;42.644;23.366;2023-04-15T08:37:27;2.43;;;1.87;;
9720;SDS011;4899;42.644;23.366;2023-04-15T08:39:52;4.00;;;2.17;;
9720;SDS011;4899;42.644;23.366;2023-04-15T08:42:19;2.50;;;2.07;;
9720;SDS011;4899;42.644;23.366;2023-04-15T08:44:51;2.13;;;1.50;;
9720;SDS011;4899;42.644;23.366;2023-04-15T08:47:19;3.77;;;1.87;;
9720;SDS011;4899;42.644;23.366;2023-04-15T08:49:46;3.37;;;2.20;;
9720;SDS011;4899;42.644;23.366;2023-04-15T08:52:17;2.57;;;1.70;;
9720;SDS011;4899;42.644;23.366;2023-04-15T08:54:43;4.83;;;1.83;;
9720;SDS011;4899;42.644;23.366;2023-04-15T08:57:09;3.87;;;1.70;;
9720;SDS011;4899;42.644;23.366;2023-04-15T08:59:35;1.70;;;1.60;;
9720;SDS011;4899;42.644;23.366;2023-04-15T09:02:01;3.30;;;1.40;;
9720;SDS011;4899;42.644;23.366;2023-04-15T09:04:27;1.93;;;1.70;;
9720;SDS011;4899;42.644;23.366;2023-04-15T09:06:53;1.73;;;1.10;;
9720;SDS011;4899;42.644;23.366;2023-04-15T09:09:18;1.80;;;1.40;;
9720;SDS011;4899;42.644;23.366;2023-04-15T09:11:44;2.57;;;1.40;;
9720;SDS011;4899;42.644;23.366;2023-04-15T09:14:09;2.80;;;1.47;;
9720;SDS011;4899;42.644;23.366;2023-04-15T09:19:24;4.00;;;1.77;;
9720;SDS011;4899;42.644;23.366;2023-04-15T09:21:52;2.90;;;1.50;;
9720;SDS011;4899;42.644;23.366;2023-04-15T09:24:18;1.73;;;1.50;;
9720;SDS011;4899;42.644;23.366;2023-04-15T09:26:44;2.93;;;1.37;;
9720;SDS011;4899;42.644;23.366;2023-04-15T09:29:10;1.73;;;1.30;;
9720;SDS011;4899;42.644;23.366;2023-04-15T09:31:40;1.77;;;1.40;;
9720;SDS011;4899;42.644;23.366;2023-04-15T09:34:05;2.30;;;1.33;;
9720;SDS011;4899;42.644;23.366;2023-04-15T09:39:13;2.70;;;1.10;;
9720;SDS011;4899;42.644;23.366;2023-04-15T09:41:38;4.03;;;1.30;;
9720;SDS011;4899;42.644;23.366;2023-04-15T09:44:05;1.77;;;1.20;;
9720;SDS011;4899;42.644;23.366;2023-04-15T09:46:40;3.30;;;1.20;;
9720;SDS011;4899;42.644;23.366;2023-04-15T09:49:07;1.97;;;1.00;;
9720;SDS011;4899;42.644;23.366;2023-04-15T09:51:34;1.07;;;0.90;;
9720;SDS011;4899;42.644;23.366;2023-04-15T09:54:00;2.77;;;0.90;;
9720;SDS011;4899;42.644;23.366;2023-04-15T09:56:31;2.63;;;1.23;;
9720;SDS011;4899;42.644;23.366;2023-04-15T09:59:00;2.60;;;1.07;;
9720;SDS011;4899;42.644;23.366;2023-04-15T10:01:25;1.97;;;1.10;;
9720;SDS011;4899;42.644;23.366;2023-04-15T10:03:51;2.83;;;0.93;;
9720;SDS011;4899;42.644;23.366;2023-04-15T10:06:20;1.87;;;1.03;;
9720;SDS011;4899;42.644;23.366;2023-04-15T10:08:47;1.07;;;0.90;;
9720;SDS011;4899;42.644;23.366;2023-04-15T10:11:13;2.53;;;1.20;;
9720;SDS011;4899;42.644;23.366;2023-04-15T10:13:39;1.73;;;1.03;;
9720;SDS011;4899;42.644;23.366;2023-04-15T10:16:07;0.90;;;0.90;;
9720;SDS011;4899;42.644;23.366;2023-04-15T10:18:37;1.33;;;1.00;;
9720;SDS011;4899;42.644;23.366;2023-04-15T10:21:05;2.70;;;1.17;;
9720;SDS011;4899;42.644;23.366;2023-04-15T10:23:33;1.53;;;0.83;;
9720;SDS011;4899;42.644;23.366;2023-04-15T10:25:59;2.40;;;1.07;;
9720;SDS011;4899;42.644;23.366;2023-04-15T10:28:25;2.50;;;1.00;;
9720;SDS011;4899;42.644;23.366;2023-04-15T10:30:51;2.40;;;1.10;;
9720;SDS011;4899;42.644;23.366;2023-04-15T10:33:19;1.73;;;0.90;;
9720;SDS011;4899;42.644;23.366;2023-04-15T10:35:47;2.07;;;0.93;;
9720;SDS011;4899;42.644;23.366;2023-04-15T10:46:46;1.60;;;1.10;;
9720;SDS011;4899;42.644;23.366;2023-04-15T10:49:12;1.20;;;0.97;;
9720;SDS011;4899;42.644;23.366;2023-04-15T10:51:40;2.23;;;1.17;;
9720;SDS011;4899;42.644;23.366;2023-04-15T10:54:13;2.53;;;1.03;;
9720;SDS011;4899;42.644;23.366;2023-04-15T10:56:41;1.90;;;0.90;;
9720;SDS011;4899;42.644;23.366;2023-04-15T10:59:08;2.40;;;1.30;;
9720;SDS011;4899;42.644;23.366;2023-04-15T11:01:49;2.57;;;1.20;;
9720;SDS011;4899;42.644;23.366;2023-04-15T11:12:56;1.03;;;0.83;;
9720;SDS011;4899;42.644;23.366;2023-04-15T11:20:33;1.53;;;1.23;;
9720;SDS011;4899;42.644;23.366;2023-04-15T11:22:58;2.73;;;0.80;;
9720;SDS011;4899;42.644;23.366;2023-04-15T11:25:25;2.33;;;1.00;;
9720;SDS011;4899;42.644;23.366;2023-04-15T11:27:52;5.43;;;1.13;;
9720;SDS011;4899;42.644;23.366;2023-04-15T11:30:19;1.80;;;1.13;;
9720;SDS011;4899;42.644;23.366;2023-04-15T11:32:47;1.70;;;1.20;;
9720;SDS011;4899;42.644;23.366;2023-04-15T11:35:13;2.70;;;1.03;;
9720;SDS011;4899;42.644;23.366;2023-04-15T11:37:38;2.23;;;0.90;;
9720;SDS011;4899;42.644;23.366;2023-04-15T11:40:04;0.70;;;0.70;;
9720;SDS011;4899;42.644;23.366;2023-04-15T11:42:31;3.10;;;1.20;;
9720;SDS011;4899;42.644;23.366;2023-04-15T11:45:12;2.60;;;1.10;;
9720;SDS011;4899;42.644;23.366;2023-04-15T11:47:40;1.40;;;1.10;;
9720;SDS011;4899;42.644;23.366;2023-04-15T11:50:19;1.60;;;1.00;;
9720;SDS011;4899;42.644;23.366;2023-04-15T11:52:57;2.83;;;0.97;;
9720;SDS011;4899;42.644;23.366;2023-04-15T11:55:24;1.83;;;0.50;;
9720;SDS011;4899;42.644;23.366;2023-04-15T11:58:04;0.77;;;0.60;;
9720;SDS011;4899;42.644;23.366;2023-04-15T12:00:32;0.67;;;0.50;;
9720;SDS011;4899;42.644;23.366;2023-04-15T12:03:17;1.40;;;0.77;;
9720;SDS011;4899;42.644;23.366;2023-04-15T12:14:04;1.53;;;0.80;;
9720;SDS011;4899;42.644;23.366;2023-04-15T12:16:38;1.47;;;1.13;;
9720;SDS011;4899;42.644;23.366;2023-04-15T12:19:12;1.27;;;1.00;;
9720;SDS011;4899;42.644;23.366;2023-04-15T12:21:40;1.50;;;1.10;;
9720;SDS011;4899;42.644;23.366;2023-04-15T12:24:09;0.90;;;0.60;;
9720;SDS011;4899;42.644;23.366;2023-04-15T12:26:37;0.67;;;0.57;;
9720;SDS011;4899;42.644;23.366;2023-04-15T12:29:09;0.93;;;0.57;;
9720;SDS011;4899;42.644;23.366;2023-04-15T12:31:36;1.13;;;0.70;;
9720;SDS011;4899;42.644;23.366;2023-04-15T12:34:10;1.60;;;0.60;;
9720;SDS011;4899;42.644;23.366;2023-04-15T12:36:36;2.23;;;0.80;;
9720;SDS011;4899;42.644;23.366;2023-04-15T12:39:02;1.10;;;0.57;;
9720;SDS011;4899;42.644;23.366;2023-04-15T12:41:29;0.50;;;0.50;;
9720;SDS011;4899;42.644;23.366;2023-04-15T12:43:55;1.53;;;0.70;;
9720;SDS011;4899;42.644;23.366;2023-04-15T12:46:21;1.80;;;0.70;;
9720;SDS011;4899;42.644;23.366;2023-04-15T12:48:47;0.80;;;0.60;;
9720;SDS011;4899;42.644;23.366;2023-04-15T12:51:12;1.00;;;0.60;;
9720;SDS011;4899;42.644;23.366;2023-04-15T12:53:38;1.30;;;0.60;;
9720;SDS011;4899;42.644;23.366;2023-04-15T12:56:04;1.70;;;0.80;;
9720;SDS011;4899;42.644;23.366;2023-04-15T12:58:30;1.57;;;0.70;;
9720;SDS011;4899;42.644;23.366;2023-04-15T13:00:56;0.93;;;0.57;;
9720;SDS011;4899;42.644;23.366;2023-04-15T13:03:22;0.57;;;0.50;;
9720;SDS011;4899;42.644;23.366;2023-04-15T13:05:47;0.63;;;0.40;;
9720;SDS011;4899;42.644;23.366;2023-04-15T13:08:13;0.80;;;0.43;;
9720;SDS011;4899;42.644;23.366;2023-04-15T13:10:38;0.67;;;0.50;;
9720;SDS011;4899;42.644;23.366;2023-04-15T13:13:04;0.93;;;0.50;;
9720;SDS011;4899;42.644;23.366;2023-04-15T13:15:30;0.90;;;0.53;;
9720;SDS011;4899;42.644;23.366;2023-04-15T13:17:56;1.27;;;0.50;;
9720;SDS011;4899;42.644;23.366;2023-04-15T13:20:21;2.03;;;0.60;;
9720;SDS011;4899;42.644;23.366;2023-04-15T13:22:47;1.87;;;0.90;;
9720;SDS011;4899;42.644;23.366;2023-04-15T13:25:12;1.33;;;0.60;;
9720;SDS011;4899;42.644;23.366;2023-04-15T13:27:38;0.80;;;0.70;;
9720;SDS011;4899;42.644;23.366;2023-04-15T13:30:04;0.60;;;0.50;;
9720;SDS011;4899;42.644;23.366;2023-04-15T13:32:30;0.67;;;0.40;;
9720;SDS011;4899;42.644;23.366;2023-04-15T13:34:55;0.97;;;0.60;;
9720;SDS011;4899;42.644;23.366;2023-04-15T13:37:27;0.73;;;0.67;;
9720;SDS011;4899;42.644;23.366;2023-04-15T13:39:54;1.30;;;0.80;;
9720;SDS011;4899;42.644;23.366;2023-04-15T13:42:20;0.53;;;0.40;;
9720;SDS011;4899;42.644;23.366;2023-04-15T13:44:46;1.67;;;0.60;;
9720;SDS011;4899;42.644;23.366;2023-04-15T13:47:11;1.33;;;0.50;;
9720;SDS011;4899;42.644;23.366;2023-04-15T13:49:39;0.70;;;0.50;;
9720;SDS011;4899;42.644;23.366;2023-04-15T13:52:05;1.10;;;0.47;;
9720;SDS011;4899;42.644;23.366;2023-04-15T13:54:31;1.90;;;0.73;;
9720;SDS011;4899;42.644;23.366;2023-04-15T13:56:57;0.70;;;0.70;;
9720;SDS011;4899;42.644;23.366;2023-04-15T13:59:22;1.20;;;0.70;;
9720;SDS011;4899;42.644;23.366;2023-04-15T14:01:48;0.63;;;0.63;;
9720;SDS011;4899;42.644;23.366;2023-04-15T14:04:13;0.80;;;0.53;;
9720;SDS011;4899;42.644;23.366;2023-04-15T14:06:39;0.87;;;0.60;;
9720;SDS011;4899;42.644;23.366;2023-04-15T14:09:05;2.00;;;0.90;;
9720;SDS011;4899;42.644;23.366;2023-04-15T14:11:30;0.70;;;0.70;;
9720;SDS011;4899;42.644;23.366;2023-04-15T14:13:56;1.17;;;0.70;;
9720;SDS011;4899;42.644;23.366;2023-04-15T14:16:21;1.17;;;0.70;;
9720;SDS011;4899;42.644;23.366;2023-04-15T14:18:48;1.57;;;0.90;;
9720;SDS011;4899;42.644;23.366;2023-04-15T14:21:13;1.27;;;0.60;;
9720;SDS011;4899;42.644;23.366;2023-04-15T14:23:39;0.40;;;0.40;;
9720;SDS011;4899;42.644;23.366;2023-04-15T14:26:05;0.73;;;0.57;;
9720;SDS011;4899;42.644;23.366;2023-04-15T14:28:30;2.03;;;0.63;;
9720;SDS011;4899;42.644;23.366;2023-04-15T14:30:56;1.57;;;0.77;;
9720;SDS011;4899;42.644;23.366;2023-04-15T14:33:21;1.03;;;0.63;;
9720;SDS011;4899;42.644;23.366;2023-04-15T14:35:48;0.90;;;0.60;;
9720;SDS011;4899;42.644;23.366;2023-04-15T14:38:13;1.00;;;0.50;;
9720;SDS011;4899;42.644;23.366;2023-04-15T14:40:39;0.67;;;0.57;;
9720;SDS011;4899;42.644;23.366;2023-04-15T14:43:05;0.70;;;0.57;;
9720;SDS011;4899;42.644;23.366;2023-04-15T14:45:31;1.80;;;0.80;;
9720;SDS011;4899;42.644;23.366;2023-04-15T14:47:57;2.77;;;0.70;;
9720;SDS011;4899;42.644;23.366;2023-04-15T14:50:23;1.63;;;0.70;;
9720;SDS011;4899;42.644;23.366;2023-04-15T14:52:48;1.00;;;0.60;;
9720;SDS011;4899;42.644;23.366;2023-04-15T14:55:14;1.13;;;0.80;;
9720;SDS011;4899;42.644;23.366;2023-04-15T14:57:40;1.00;;;0.50;;
9720;SDS011;4899;42.644;23.366;2023-04-15T15:00:07;0.70;;;0.53;;
9720;SDS011;4899;42.644;23.366;2023-04-15T15:02:34;1.10;;;0.50;;
9720;SDS011;4899;42.644;23.366;2023-04-15T15:05:00;1.40;;;0.70;;
9720;SDS011;4899;42.644;23.366;2023-04-15T15:07:26;0.80;;;0.80;;
9720;SDS011;4899;42.644;23.366;2023-04-15T15:09:52;1.13;;;0.70;;
9720;SDS011;4899;42.644;23.366;2023-04-15T15:12:18;0.70;;;0.60;;
9720;SDS011;4899;42.644;23.366;2023-04-15T15:14:44;1.60;;;0.60;;
9720;SDS011;4899;42.644;23.366;2023-04-15T15:17:09;0.80;;;0.80;;
9720;SDS011;4899;42.644;23.366;2023-04-15T15:19:35;1.60;;;0.90;;
9720;SDS011;4899;42.644;23.366;2023-04-15T15:22:01;1.97;;;0.97;;
9720;SDS011;4899;42.644;23.366;2023-04-15T15:24:27;1.60;;;0.70;;
9720;SDS011;4899;42.644;23.366;2023-04-15T15:26:52;1.33;;;0.80;;
9720;SDS011;4899;42.644;23.366;2023-04-15T15:29:18;1.03;;;0.60;;
9720;SDS011;4899;42.644;23.366;2023-04-15T15:31:43;1.80;;;0.70;;
9720;SDS011;4899;42.644;23.366;2023-04-15T15:34:09;1.00;;;0.80;;